Time;durP1;ratioP1;P1;durP2;ratioP2;P2;SDS_P1;SDS_P2;PMS_P1;PMS_P2;Temp;Humidity;BMP_temperature;BMP_pressure;BME280_temperature;BME280_humidity;BME280_pressure;Samples;Min_cycle;Max_cycle;Signal;HPM_P1;HPM_P2
2023/12/05 20:10:44;;;;;;;;;21.00;19.75;;;;;-146.67;100.00;75921.63;5085300;27;61831;-72
2023/12/05 20:13:10;;;;;;;;;13.50;12.00;;;;;-146.67;100.00;75907.66;5077249;27;61789;-73
2023/12/05 20:15:35;;;;;;;;;13.00;11.50;;;;;-146.67;100.00;75889.69;5078123;27;62230;-73
2023/12/05 20:18:01;;;;;;;;;18.00;15.50;;;;;-146.67;100.00;75873.69;5075859;28;62930;-73
2023/12/05 20:20:26;;;;;;;;;16.50;13.50;;;;;-146.67;100.00;75893.66;5076499;28;61798;-73
2023/12/05 20:22:51;;;;;;;;;13.50;12.00;;;;;-146.67;100.00;75877.69;5076926;28;61821;-73
2023/12/05 20:25:17;;;;;;;;;16.75;13.25;;;;;-146.67;100.00;75879.69;5077991;27;62064;-74
2023/12/05 20:27:44;;;;;;;;;25.25;15.00;;;;;-146.67;100.00;75903.66;5076576;28;64024;-71
2023/12/05 20:30:10;;;;;;;;;17.50;14.00;;;;;-146.67;100.00;75893.66;5076566;28;61909;-71
2023/12/05 20:32:36;;;;;;;;;20.50;18.25;;;;;-146.67;100.00;75845.75;5075122;28;61860;-71
2023/12/05 20:35:01;;;;;;;;;21.75;15.00;;;;;-146.67;100.00;75897.66;5078831;27;61845;-71
2023/12/05 20:37:26;;;;;;;;;17.25;15.75;;;;;-146.67;100.00;75885.69;5077986;27;63161;-71
2023/12/05 20:39:52;;;;;;;;;22.00;18.00;;;;;-146.67;100.00;75887.69;5076696;28;61892;-71
2023/12/05 20:42:21;;;;;;;;;18.25;15.50;;;;;-146.67;100.00;75909.66;5077783;28;61725;-73
2023/12/05 20:44:47;;;;;;;;;17.75;15.00;;;;;-146.67;100.00;75915.63;5077996;28;61990;-73
2023/12/05 20:47:12;;;;;;;;;24.00;15.75;;;;;-146.67;100.00;75927.63;5077522;28;61854;-73
2023/12/05 20:49:38;;;;;;;;;18.25;14.75;;;;;-146.67;100.00;75917.63;5082191;27;61930;-73
2023/12/05 20:52:04;;;;;;;;;22.75;16.75;;;;;-146.67;100.00;75919.63;5058222;28;62064;-73
2023/12/05 20:54:29;;;;;;;;;16.75;13.25;;;;;-146.67;100.00;75909.66;5068866;28;62010;-72
2023/12/05 20:56:55;;;;;;;;;22.50;15.00;;;;;-146.67;100.00;75911.66;5076190;28;64960;-72
2023/12/05 20:59:20;;;;;;;;;18.00;15.50;;;;;-146.67;100.00;75925.63;5077739;27;61979;-72
2023/12/05 21:01:45;;;;;;;;;18.00;15.50;;;;;-146.67;100.00;75907.66;5073445;27;61925;-73
2023/12/05 21:04:11;;;;;;;;;16.50;14.75;;;;;-146.67;100.00;75923.63;5061652;28;61946;-71
2023/12/05 21:06:36;;;;;;;;;14.00;14.00;;;;;-146.67;100.00;75913.66;5076760;27;61875;-71
2023/12/05 21:09:01;;;;;;;;;8.75;8.75;;;;;-146.67;100.00;75903.66;5078027;27;61876;-71
2023/12/05 21:11:27;;;;;;;;;21.25;15.50;;;;;-146.67;100.00;75921.63;5066277;27;61744;-71
2023/12/05 21:13:52;;;;;;;;;22.00;18.25;;;;;-146.67;100.00;75919.63;5060933;28;62040;-71
2023/12/05 21:16:18;;;;;;;;;17.25;15.25;;;;;-146.67;100.00;75921.63;5061522;28;63513;-72
2023/12/05 21:18:43;;;;;;;;;20.50;16.50;;;;;-146.67;100.00;75909.66;5064333;28;61853;-72
2023/12/05 21:21:08;;;;;;;;;15.75;14.75;;;;;-146.67;100.00;75929.63;5064323;28;61739;-73
2023/12/05 21:23:34;;;;;;;;;23.00;16.75;;;;;-146.67;100.00;75907.66;5062972;28;61965;-72
2023/12/05 21:25:59;;;;;;;;;22.50;20.25;;;;;-146.67;100.00;75909.66;5075007;28;62694;-73
2023/12/05 21:28:25;;;;;;;;;19.25;16.75;;;;;-146.67;100.00;75915.63;5061970;28;61893;-73
2023/12/05 21:30:51;;;;;;;;;24.25;20.75;;;;;-146.67;100.00;75925.63;5062889;28;61932;-73
2023/12/05 21:33:17;;;;;;;;;18.75;15.75;;;;;-146.67;100.00;75911.66;5063970;28;62017;-73
2023/12/05 21:35:44;;;;;;;;;18.75;18.75;;;;;-146.67;100.00;75905.66;5058847;28;63398;-73
2023/12/05 21:38:10;;;;;;;;;15.00;15.00;;;;;-146.67;100.00;75931.63;5052882;28;62028;-73
2023/12/05 21:40:35;;;;;;;;;16.50;14.50;;;;;-146.67;100.00;75941.59;5064326;28;61925;-73
2023/12/05 21:43:00;;;;;;;;;17.00;15.75;;;;;-146.67;100.00;75951.59;5063480;28;61700;-73
2023/12/05 21:45:26;;;;;;;;;20.00;15.75;;;;;-146.67;100.00;75939.59;5063285;28;62586;-73
2023/12/05 21:47:51;;;;;;;;;25.75;23.25;;;;;-146.67;100.00;75949.59;5062304;28;61972;-73
2023/12/05 21:50:16;;;;;;;;;21.25;15.00;;;;;-146.67;100.00;75947.59;5064218;28;61887;-73
2023/12/05 21:52:51;;;;;;;;;21.00;17.50;;;;;-146.67;100.00;75935.63;5064250;28;61870;-73
2023/12/05 21:55:18;;;;;;;;;34.50;22.50;;;;;-146.67;100.00;75941.59;5063348;28;62837;-73
2023/12/05 21:57:49;;;;;;;;;23.00;19.25;;;;;-146.67;100.00;75949.59;5062407;28;61826;-73
2023/12/05 22:00:14;;;;;;;;;19.25;16.50;;;;;-146.67;100.00;75959.59;5062101;28;62044;-73
2023/12/05 22:02:40;;;;;;;;;20.00;17.50;;;;;-146.67;100.00;75963.56;5063634;28;62139;-73
2023/12/05 22:05:06;;;;;;;;;29.75;23.50;;;;;-146.67;100.00;75977.56;5061579;28;63440;-73
2023/12/05 22:07:31;;;;;;;;;24.50;17.50;;;;;-146.67;100.00;75965.56;5079134;27;61830;-73
2023/12/05 22:09:56;;;;;;;;;23.00;19.50;;;;;-146.67;100.00;75979.56;5063778;28;61876;-73
2023/12/05 22:12:22;;;;;;;;;21.25;18.50;;;;;-146.67;100.00;75971.56;5063201;28;61743;-74
2023/12/05 22:14:47;;;;;;;;;18.25;14.00;;;;;-146.67;100.00;75975.56;5063212;28;62146;-73
2023/12/05 22:17:13;;;;;;;;;19.00;18.25;;;;;-146.67;100.00;76029.47;5063324;28;62048;-73
2023/12/05 22:19:38;;;;;;;;;28.75;19.25;;;;;-146.67;100.00;76035.47;5063641;28;61815;-73
2023/12/05 22:22:03;;;;;;;;;25.50;20.75;;;;;-146.67;100.00;76029.47;5061669;28;61833;-73
2023/12/05 22:24:29;;;;;;;;;22.00;19.50;;;;;-146.67;100.00;76021.50;5062956;28;62029;-73
2023/12/05 22:26:54;;;;;;;;;26.50;20.00;;;;;-146.67;100.00;76031.47;5063397;28;61751;-73
2023/12/05 22:29:19;;;;;;;;;22.50;20.50;;;;;-146.67;100.00;76019.50;5063006;28;61855;-72
2023/12/05 22:31:45;;;;;;;;;20.25;19.25;;;;;-146.67;100.00;76039.47;5063626;28;61695;-73
2023/12/05 22:34:12;;;;;;;;;21.00;20.50;;;;;-146.67;100.00;76033.47;5078036;28;61865;-72
2023/12/05 22:36:38;;;;;;;;;28.75;22.25;;;;;-146.67;100.00;76049.44;5082460;28;61985;-72
2023/12/05 22:39:04;;;;;;;;;19.75;16.00;;;;;-146.67;100.00;76061.44;5071564;27;61984;-72
2023/12/05 22:41:29;;;;;;;;;23.50;19.50;;;;;-146.67;100.00;76073.41;5062292;28;61981;-72
2023/12/05 22:43:55;;;;;;;;;28.00;20.25;;;;;-146.67;100.00;76075.41;5061654;28;61910;-72
2023/12/05 22:46:20;;;;;;;;;11.75;11.75;;;;;-146.67;100.00;76079.41;5062327;28;62041;-72
2023/12/05 22:48:46;;;;;;;;;33.75;24.25;;;;;-146.67;100.00;76085.41;5061184;28;61950;-72
2023/12/05 22:51:12;;;;;;;;;24.25;21.50;;;;;-146.67;100.00;76087.41;5061091;28;62295;-72
2023/12/05 22:53:38;;;;;;;;;23.00;20.75;;;;;-146.67;100.00;76085.41;5059583;28;63534;-73
2023/12/05 22:56:04;;;;;;;;;17.50;17.50;;;;;-146.67;100.00;76073.41;5062696;28;61759;-72
2023/12/05 22:58:30;;;;;;;;;24.75;22.25;;;;;-146.67;100.00;76059.44;5061781;28;62326;-72
2023/12/05 23:00:56;;;;;;;;;18.25;18.25;;;;;-146.67;100.00;76075.41;5062456;28;61911;-72
2023/12/05 23:03:21;;;;;;;;;22.50;19.25;;;;;-146.67;100.00;76061.44;5062347;28;63011;-72
2023/12/05 23:05:47;;;;;;;;;23.25;21.75;;;;;-146.67;100.00;76057.44;5074640;27;61881;-72
2023/12/05 23:08:13;;;;;;;;;19.50;16.75;;;;;-146.67;100.00;76057.44;5077222;27;61820;-72
2023/12/05 23:10:38;;;;;;;;;17.75;14.25;;;;;-146.67;100.00;76057.44;5062211;28;63668;-72
2023/12/05 23:13:04;;;;;;;;;13.00;13.00;;;;;-146.67;100.00;76057.44;5062097;28;61733;-72
2023/12/05 23:15:30;;;;;;;;;29.00;23.00;;;;;-146.67;100.00;76061.44;5060657;28;61808;-72
2023/12/05 23:17:56;;;;;;;;;25.50;22.75;;;;;-146.67;100.00;76075.41;5062147;28;61782;-72
2023/12/05 23:20:21;;;;;;;;;27.25;23.50;;;;;-146.67;100.00;76071.41;5061563;28;62108;-73
2023/12/05 23:22:46;;;;;;;;;19.50;16.75;;;;;-146.67;100.00;76075.41;5061756;28;61967;-72
2023/12/05 23:25:12;;;;;;;;;17.75;14.50;;;;;-146.67;100.00;76087.41;5060593;28;61766;-72
2023/12/05 23:27:39;;;;;;;;;17.50;15.50;;;;;-146.67;100.00;76089.41;5061250;28;61920;-72
2023/12/05 23:30:05;;;;;;;;;20.75;16.00;;;;;-146.67;100.00;76097.38;5062515;28;62188;-72
2023/12/05 23:32:31;;;;;;;;;19.50;16.50;;;;;-146.67;100.00;76097.38;5060200;28;63668;-72
2023/12/05 23:34:56;;;;;;;;;23.00;18.75;;;;;-146.67;100.00;76107.38;5062055;28;61861;-72
2023/12/05 23:37:22;;;;;;;;;22.75;19.25;;;;;-146.67;100.00;76087.41;5060572;28;62780;-72
2023/12/05 23:39:48;;;;;;;;;18.25;14.50;;;;;-146.67;100.00;76079.41;5062338;28;61904;-72
2023/12/05 23:42:14;;;;;;;;;18.25;14.00;;;;;-146.67;100.00;76083.41;5060345;28;64024;-72
2023/12/05 23:44:39;;;;;;;;;18.75;13.25;;;;;-146.67;95.25;75588.13;5062050;28;61937;-72
2023/12/05 23:47:04;;;;;;;;;21.75;16.25;;;;;-146.67;72.85;75440.34;5060352;28;61873;-72
2023/12/05 23:49:30;;;;;;;;;21.25;16.75;;;;;-146.67;66.85;75386.44;5062688;28;61998;-72
2023/12/05 23:51:55;;;;;;;;;20.75;15.50;;;;;-146.67;63.67;75382.44;5060817;28;62419;-72
2023/12/05 23:54:21;;;;;;;;;17.25;14.50;;;;;-146.67;63.09;75374.44;5061498;28;61886;-72
2023/12/05 23:56:46;;;;;;;;;19.25;17.25;;;;;-146.67;62.12;75386.44;5061938;28;62494;-72
2023/12/05 23:59:11;;;;;;;;;19.00;14.25;;;;;-146.67;61.59;75398.41;5061838;28;61913;-72
